Time;durP1;ratioP1;P1;durP2;ratioP2;P2;SDS_P1;SDS_P2;PMS_P1;PMS_P2;Temp;Humidity;BMP_temperature;BMP_pressure;BME280_temperature;BME280_humidity;BME280_pressure;Samples;Min_cycle;Max_cycle;Signal;HPM_P1;HPM_P2
2021/10/12 00:00:08;;;;;;;12.93;1.65;;;;;;;;;;5003938;28;20049;-75
2021/10/12 00:02:34;;;;;;;15.63;2.47;;;;;;;;;;4992823;28;20049;-75
2021/10/12 00:05:01;;;;;;;16.60;2.05;;;;;;;;;;4989076;28;20498;-75
2021/10/12 00:07:27;;;;;;;16.42;2.47;;;;;;;;;;4986613;28;20093;-75
2021/10/12 00:09:53;;;;;;;17.85;2.22;;;;;;;;;;4989335;28;20192;-75
2021/10/12 00:12:19;;;;;;;19.85;3.05;;;;;;;;;;5002318;28;20200;-75
2021/10/12 00:14:45;;;;;;;23.23;2.17;;;;;;;;;;4992190;28;20041;-75
2021/10/12 00:17:12;;;;;;;20.52;2.80;;;;;;;;;;4972934;28;20494;-75
2021/10/12 00:19:38;;;;;;;21.08;2.47;;;;;;;;;;4992332;28;20883;-75
2021/10/12 00:22:05;;;;;;;20.00;3.60;;;;;;;;;;4991637;28;20054;-75
2021/10/12 00:24:31;;;;;;;17.98;2.65;;;;;;;;;;5005377;28;20117;-75
2021/10/12 00:26:57;;;;;;;14.68;2.17;;;;;;;;;;4990878;28;20054;-75
2021/10/12 00:29:23;;;;;;;17.75;2.17;;;;;;;;;;4991431;28;20097;-75
2021/10/12 00:31:49;;;;;;;12.30;1.83;;;;;;;;;;4986733;28;20438;-75
2021/10/12 00:34:18;;;;;;;17.10;2.15;;;;;;;;;;5001287;28;20046;-75
2021/10/12 00:36:45;;;;;;;15.57;2.45;;;;;;;;;;4989651;28;20489;-75
2021/10/12 00:39:11;;;;;;;26.02;2.90;;;;;;;;;;4991186;28;20042;-75
2021/10/12 00:41:38;;;;;;;19.25;2.20;;;;;;;;;;4991666;28;20048;-75
2021/10/12 00:44:06;;;;;;;14.30;1.85;;;;;;;;;;5003631;28;20038;-75
2021/10/12 00:46:32;;;;;;;21.13;2.25;;;;;;;;;;4999722;28;20042;-75
2021/10/12 00:48:59;;;;;;;14.40;1.85;;;;;;;;;;4991228;28;20042;-75
2021/10/12 00:51:25;;;;;;;19.20;3.08;;;;;;;;;;4988791;28;20182;-75
2021/10/12 00:53:52;;;;;;;18.50;2.20;;;;;;;;;;4988476;28;20053;-75
2021/10/12 00:56:19;;;;;;;14.57;3.03;;;;;;;;;;4989994;28;20133;-75
2021/10/12 00:58:46;;;;;;;18.90;2.50;;;;;;;;;;4978397;28;20051;-75
2021/10/12 01:01:13;;;;;;;16.00;2.20;;;;;;;;;;5002051;28;20034;-75
2021/10/12 01:03:39;;;;;;;17.05;3.00;;;;;;;;;;5007468;28;20092;-75
2021/10/12 01:06:05;;;;;;;12.52;2.15;;;;;;;;;;5020494;28;20445;-75
2021/10/12 01:08:31;;;;;;;12.50;2.10;;;;;;;;;;5005280;28;20049;-75
2021/10/12 01:10:58;;;;;;;12.95;1.90;;;;;;;;;;5019664;28;20478;-75
2021/10/12 01:13:25;;;;;;;12.38;1.70;;;;;;;;;;5007773;28;20045;-76
2021/10/12 01:15:52;;;;;;;19.30;2.60;;;;;;;;;;5004596;28;20155;-75
2021/10/12 01:18:18;;;;;;;15.48;2.85;;;;;;;;;;5003665;28;20120;-75
2021/10/12 01:20:44;;;;;;;13.40;1.73;;;;;;;;;;5007854;28;20054;-75
2021/10/12 01:23:12;;;;;;;15.52;1.80;;;;;;;;;;5006279;28;20046;-75
2021/10/12 01:25:38;;;;;;;15.82;2.17;;;;;;;;;;5004922;28;20407;-75
2021/10/12 01:28:08;;;;;;;10.65;2.08;;;;;;;;;;5003674;28;20132;-75
2021/10/12 01:30:35;;;;;;;15.77;2.90;;;;;;;;;;5005659;28;20072;-75
2021/10/12 01:33:01;;;;;;;10.93;2.22;;;;;;;;;;5004148;28;20128;-75
2021/10/12 01:35:27;;;;;;;20.70;2.65;;;;;;;;;;5006422;28;20417;-75
2021/10/12 01:37:54;;;;;;;16.30;2.22;;;;;;;;;;5006311;28;20093;-75
2021/10/12 01:40:20;;;;;;;16.42;2.28;;;;;;;;;;5005900;28;20038;-75
2021/10/12 01:42:46;;;;;;;16.60;2.67;;;;;;;;;;5017842;28;20103;-75
2021/10/12 01:45:12;;;;;;;12.23;2.30;;;;;;;;;;5006338;28;20121;-76
2021/10/12 01:47:39;;;;;;;24.50;3.30;;;;;;;;;;5015018;28;20060;-75
2021/10/12 01:50:06;;;;;;;16.23;2.88;;;;;;;;;;5004843;28;20044;-75
2021/10/12 01:52:32;;;;;;;14.02;1.77;;;;;;;;;;4982069;28;20069;-75
2021/10/12 01:54:59;;;;;;;19.83;2.10;;;;;;;;;;5005749;28;20038;-75
2021/10/12 01:57:25;;;;;;;21.92;2.90;;;;;;;;;;5001052;28;20108;-75
2021/10/12 01:59:51;;;;;;;10.85;2.00;;;;;;;;;;4987932;28;20053;-75
2021/10/12 02:02:17;;;;;;;15.15;1.92;;;;;;;;;;4985036;28;20129;-75
2021/10/12 02:04:43;;;;;;;12.57;2.15;;;;;;;;;;4980246;28;20084;-75
2021/10/12 02:07:09;;;;;;;19.55;3.03;;;;;;;;;;4996874;28;20137;-75
2021/10/12 02:09:36;;;;;;;23.60;2.65;;;;;;;;;;4988235;28;20046;-75
2021/10/12 02:12:02;;;;;;;17.60;2.80;;;;;;;;;;4989506;28;20069;-75
2021/10/12 02:14:28;;;;;;;19.15;2.38;;;;;;;;;;4990903;28;20054;-75
2021/10/12 02:16:54;;;;;;;13.18;2.13;;;;;;;;;;4989149;28;20133;-75
2021/10/12 02:19:21;;;;;;;15.27;2.45;;;;;;;;;;4989993;28;20037;-75
2021/10/12 02:21:47;;;;;;;12.25;2.15;;;;;;;;;;4990649;28;20129;-75
2021/10/12 02:24:13;;;;;;;13.40;2.50;;;;;;;;;;4996241;28;20474;-75
2021/10/12 02:26:39;;;;;;;18.75;3.47;;;;;;;;;;4989025;28;20034;-75
2021/10/12 02:29:06;;;;;;;18.52;3.20;;;;;;;;;;4989955;28;20594;-75
2021/10/12 02:31:32;;;;;;;21.95;2.42;;;;;;;;;;4988890;28;20052;-75
2021/10/12 02:33:58;;;;;;;18.58;2.83;;;;;;;;;;4990910;28;20050;-75
2021/10/12 02:36:24;;;;;;;14.90;2.25;;;;;;;;;;4997852;28;20133;-75
2021/10/12 02:38:50;;;;;;;18.85;1.90;;;;;;;;;;4997262;28;20116;-75
2021/10/12 02:41:16;;;;;;;14.10;2.80;;;;;;;;;;4989146;28;20163;-75
2021/10/12 02:43:43;;;;;;;14.35;2.30;;;;;;;;;;5003508;28;20200;-75
2021/10/12 02:46:09;;;;;;;17.70;3.42;;;;;;;;;;4989020;28;20394;-75
2021/10/12 02:48:35;;;;;;;11.95;2.00;;;;;;;;;;4990157;28;20042;-75
2021/10/12 02:51:01;;;;;;;17.25;2.10;;;;;;;;;;4995829;28;20076;-75
2021/10/12 02:53:27;;;;;;;20.17;3.42;;;;;;;;;;4998949;28;20050;-75
2021/10/12 02:55:53;;;;;;;17.60;2.92;;;;;;;;;;4988232;28;20297;-75
2021/10/12 02:58:20;;;;;;;16.17;2.60;;;;;;;;;;4981332;28;20422;-75
2021/10/12 03:00:46;;;;;;;12.07;2.55;;;;;;;;;;4988819;28;20048;-75
2021/10/12 03:03:12;;;;;;;19.20;2.22;;;;;;;;;;4990057;28;20486;-75
2021/10/12 03:05:43;;;;;;;21.65;3.20;;;;;;;;;;4994516;28;20044;-75
2021/10/12 03:08:09;;;;;;;15.68;1.98;;;;;;;;;;4987824;28;20057;-75
2021/10/12 03:10:35;;;;;;;14.10;2.10;;;;;;;;;;4963453;28;20058;-75
2021/10/12 03:13:02;;;;;;;11.93;1.80;;;;;;;;;;4982855;28;20046;-75
2021/10/12 03:15:28;;;;;;;12.02;1.52;;;;;;;;;;4967164;28;20087;-75
2021/10/12 03:17:54;;;;;;;9.75;1.40;;;;;;;;;;4994556;28;20501;-75
2021/10/12 03:20:21;;;;;;;17.00;2.40;;;;;;;;;;4979995;28;20054;-75
2021/10/12 03:22:48;;;;;;;8.93;1.73;;;;;;;;;;4990346;28;20403;-75
2021/10/12 03:25:14;;;;;;;8.82;1.40;;;;;;;;;;4986067;28;20060;-75
2021/10/12 03:27:40;;;;;;;10.70;1.48;;;;;;;;;;4999997;28;20486;-75
2021/10/12 03:30:07;;;;;;;15.00;1.83;;;;;;;;;;5005371;28;20626;-75
2021/10/12 03:32:33;;;;;;;11.18;1.80;;;;;;;;;;5007312;28;20146;-75
2021/10/12 03:34:59;;;;;;;15.57;1.73;;;;;;;;;;4990780;28;20068;-75
2021/10/12 03:37:26;;;;;;;11.88;1.52;;;;;;;;;;4991221;28;20042;-75
2021/10/12 03:39:52;;;;;;;16.05;2.30;;;;;;;;;;4987507;28;20331;-75
2021/10/12 03:42:18;;;;;;;14.38;2.30;;;;;;;;;;4976552;28;20520;-75
2021/10/12 03:44:44;;;;;;;14.13;1.73;;;;;;;;;;4975317;28;20033;-75
2021/10/12 03:47:10;;;;;;;18.60;2.40;;;;;;;;;;4976314;28;20077;-75
2021/10/12 03:49:37;;;;;;;20.90;2.03;;;;;;;;;;4978196;28;20041;-75
2021/10/12 03:52:03;;;;;;;10.73;1.83;;;;;;;;;;4991779;28;20089;-75
2021/10/12 03:54:29;;;;;;;16.95;2.20;;;;;;;;;;5006975;28;20034;-75
2021/10/12 03:56:55;;;;;;;22.50;2.70;;;;;;;;;;4991929;28;20049;-75
2021/10/12 03:59:21;;;;;;;18.90;2.33;;;;;;;;;;5002993;28;20054;-75
2021/10/12 04:01:48;;;;;;;18.73;3.33;;;;;;;;;;5017723;28;20048;-75
2021/10/12 04:04:14;;;;;;;12.50;2.22;;;;;;;;;;5007508;28;20038;-75
2021/10/12 04:06:40;;;;;;;14.75;2.25;;;;;;;;;;5007511;28;20463;-75
2021/10/12 04:09:07;;;;;;;17.08;2.33;;;;;;;;;;5008062;28;20189;-75
2021/10/12 04:11:33;;;;;;;22.90;2.70;;;;;;;;;;5008052;28;20477;-75
2021/10/12 04:14:00;;;;;;;19.33;2.33;;;;;;;;;;5007720;28;20046;-75
2021/10/12 04:16:26;;;;;;;16.65;3.40;;;;;;;;;;5006125;28;20178;-75
2021/10/12 04:18:52;;;;;;;20.42;2.30;;;;;;;;;;5003003;28;20050;-75
2021/10/12 04:21:18;;;;;;;21.52;2.80;;;;;;;;;;5009762;28;20048;-75
2021/10/12 04:23:44;;;;;;;18.25;2.03;;;;;;;;;;5008007;28;20073;-75
2021/10/12 04:26:14;;;;;;;19.48;3.00;;;;;;;;;;5006177;28;20054;-75
2021/10/12 04:28:40;;;;;;;16.13;2.78;;;;;;;;;;5007272;28;20347;-75
2021/10/12 04:31:06;;;;;;;20.25;2.50;;;;;;;;;;4996690;28;20436;-75
2021/10/12 04:33:34;;;;;;;14.82;2.35;;;;;;;;;;5007333;28;20050;-75
2021/10/12 04:36:00;;;;;;;16.75;2.50;;;;;;;;;;5000364;28;20054;-75
2021/10/12 04:38:26;;;;;;;17.55;2.88;;;;;;;;;;4995447;28;20340;-75
2021/10/12 04:40:52;;;;;;;16.25;2.40;;;;;;;;;;5007804;28;20375;-75
2021/10/12 04:43:21;;;;;;;16.15;2.35;;;;;;;;;;5007045;28;20041;-75
2021/10/12 04:45:47;;;;;;;16.38;2.08;;;;;;;;;;5016318;28;20054;-75
2021/10/12 04:48:15;;;;;;;19.75;2.97;;;;;;;;;;5009086;28;20462;-75
2021/10/12 04:50:41;;;;;;;18.10;3.03;;;;;;;;;;5006348;28;20100;-75
2021/10/12 04:53:08;;;;;;;19.23;2.63;;;;;;;;;;5005369;28;20049;-75
2021/10/12 04:55:35;;;;;;;20.40;2.78;;;;;;;;;;5007318;28;20041;-74
2021/10/12 04:58:01;;;;;;;18.42;2.70;;;;;;;;;;4996417;28;20406;-75
2021/10/12 05:00:28;;;;;;;11.43;1.65;;;;;;;;;;4996908;28;20043;-75
2021/10/12 05:02:55;;;;;;;20.25;2.33;;;;;;;;;;4995848;28;20042;-73
2021/10/12 05:05:21;;;;;;;20.15;2.10;;;;;;;;;;5003238;28;20176;-75
2021/10/12 05:07:47;;;;;;;16.80;2.05;;;;;;;;;;5006526;28;20382;-74
2021/10/12 05:10:14;;;;;;;12.88;1.65;;;;;;;;;;5004358;28;20780;-75
2021/10/12 05:12:40;;;;;;;14.57;1.63;;;;;;;;;;5003851;28;20061;-75
2021/10/12 05:15:07;;;;;;;17.25;1.58;;;;;;;;;;5004430;28;20049;-76
2021/10/12 05:17:36;;;;;;;15.65;2.00;;;;;;;;;;5019237;28;20060;-77
2021/10/12 05:20:03;;;;;;;14.13;1.52;;;;;;;;;;4988847;28;20080;-77
2021/10/12 05:22:30;;;;;;;10.13;1.00;;;;;;;;;;5008377;28;20042;-77
2021/10/12 05:24:56;;;;;;;9.20;1.85;;;;;;;;;;5004573;28;20060;-77
2021/10/12 05:27:22;;;;;;;11.88;1.52;;;;;;;;;;5007664;28;20638;-76
2021/10/12 05:29:49;;;;;;;12.88;1.73;;;;;;;;;;5008222;28;20078;-74
2021/10/12 05:32:15;;;;;;;15.75;1.45;;;;;;;;;;5005233;28;20121;-77
2021/10/12 05:34:41;;;;;;;12.93;1.88;;;;;;;;;;5007628;28;20046;-76
2021/10/12 05:37:07;;;;;;;7.30;1.17;;;;;;;;;;5006807;28;20082;-77
2021/10/12 05:39:33;;;;;;;16.58;1.60;;;;;;;;;;5001189;28;20054;-77
2021/10/12 05:41:59;;;;;;;10.77;1.20;;;;;;;;;;5000021;28;20038;-76
2021/10/12 05:44:26;;;;;;;9.98;1.33;;;;;;;;;;5002622;28;20065;-76
2021/10/12 05:46:52;;;;;;;13.75;1.77;;;;;;;;;;4999530;28;20042;-76
2021/10/12 05:49:18;;;;;;;9.82;0.98;;;;;;;;;;4997631;28;20055;-78
2021/10/12 05:51:47;;;;;;;7.38;1.02;;;;;;;;;;5009955;28;20470;-78
2021/10/12 05:54:17;;;;;;;11.38;1.90;;;;;;;;;;5000728;28;20046;-78
2021/10/12 05:56:47;;;;;;;6.55;1.48;;;;;;;;;;5006596;28;20054;-78
2021/10/12 05:59:13;;;;;;;15.18;1.33;;;;;;;;;;5010137;28;20061;-78
2021/10/12 06:01:41;;;;;;;11.13;1.30;;;;;;;;;;5022043;28;20153;-78
2021/10/12 06:04:07;;;;;;;12.68;1.38;;;;;;;;;;5010753;28;20121;-78
2021/10/12 06:06:34;;;;;;;8.95;1.30;;;;;;;;;;5010469;28;20129;-78
2021/10/12 06:09:00;;;;;;;13.55;1.52;;;;;;;;;;5010234;28;20482;-78
2021/10/12 06:11:26;;;;;;;10.10;1.33;;;;;;;;;;5010062;28;20049;-78
2021/10/12 06:13:55;;;;;;;9.02;1.20;;;;;;;;;;5010276;28;20053;-78
2021/10/12 06:16:21;;;;;;;8.55;1.35;;;;;;;;;;5011610;28;20524;-78
2021/10/12 06:18:47;;;;;;;16.25;1.65;;;;;;;;;;5010156;28;20042;-77
2021/10/12 06:21:13;;;;;;;18.60;1.60;;;;;;;;;;5010284;28;20056;-77
2021/10/12 06:23:40;;;;;;;14.40;1.75;;;;;;;;;;5009667;28;20041;-77
2021/10/12 06:26:06;;;;;;;11.45;1.42;;;;;;;;;;5011758;28;20045;-77
2021/10/12 06:28:33;;;;;;;11.43;2.33;;;;;;;;;;5010018;28;20439;-79
2021/10/12 06:30:59;;;;;;;10.75;1.60;;;;;;;;;;5009990;28;20045;-79
2021/10/12 06:33:25;;;;;;;10.30;1.88;;;;;;;;;;4991561;28;20136;-76
2021/10/12 06:35:52;;;;;;;6.28;1.40;;;;;;;;;;5009880;28;20038;-77
2021/10/12 06:38:18;;;;;;;10.27;1.70;;;;;;;;;;5011154;28;20140;-77
2021/10/12 06:40:44;;;;;;;11.63;1.92;;;;;;;;;;5009971;28;20042;-77
2021/10/12 06:43:10;;;;;;;14.13;1.40;;;;;;;;;;5009467;28;20156;-76
2021/10/12 06:45:37;;;;;;;12.43;1.25;;;;;;;;;;5010942;28;20049;-77
2021/10/12 06:48:04;;;;;;;12.15;1.40;;;;;;;;;;5011491;28;20034;-77
2021/10/12 06:50:30;;;;;;;11.75;1.70;;;;;;;;;;4993277;28;20045;-77
2021/10/12 06:52:56;;;;;;;13.77;1.67;;;;;;;;;;5008595;28;20072;-77
2021/10/12 06:55:23;;;;;;;10.77;1.67;;;;;;;;;;5009593;28;20077;-77
2021/10/12 06:57:49;;;;;;;11.75;1.40;;;;;;;;;;5009426;28;20061;-77
2021/10/12 07:00:16;;;;;;;10.50;1.40;;;;;;;;;;5011589;28;20060;-77
2021/10/12 07:02:43;;;;;;;13.43;2.00;;;;;;;;;;5010470;28;20041;-77
2021/10/12 07:05:09;;;;;;;13.55;1.90;;;;;;;;;;5010935;28;20052;-77
2021/10/12 07:07:35;;;;;;;16.83;2.70;;;;;;;;;;5011006;28;20056;-77
2021/10/12 07:10:02;;;;;;;16.65;1.92;;;;;;;;;;5010908;28;20060;-77
2021/10/12 07:12:28;;;;;;;15.85;2.10;;;;;;;;;;5025531;28;20057;-77
2021/10/12 07:14:54;;;;;;;13.88;2.03;;;;;;;;;;5009697;28;20053;-77
2021/10/12 07:17:20;;;;;;;8.70;1.50;;;;;;;;;;5010882;28;20448;-77
2021/10/12 07:19:46;;;;;;;16.98;2.17;;;;;;;;;;5008820;28;20398;-77
2021/10/12 07:22:13;;;;;;;13.18;1.63;;;;;;;;;;5009416;28;20038;-77
2021/10/12 07:24:39;;;;;;;10.43;1.52;;;;;;;;;;5009565;28;20045;-77
2021/10/12 07:27:08;;;;;;;11.10;1.63;;;;;;;;;;5010659;28;20038;-77
2021/10/12 07:29:34;;;;;;;11.32;1.60;;;;;;;;;;5009944;28;20057;-77
2021/10/12 07:32:00;;;;;;;15.48;1.77;;;;;;;;;;5010722;28;20465;-77
2021/10/12 07:34:27;;;;;;;9.70;1.42;;;;;;;;;;5009155;28;20038;-77
2021/10/12 07:36:53;;;;;;;15.02;1.85;;;;;;;;;;5010499;28;20081;-77
2021/10/12 07:39:19;;;;;;;10.98;1.65;;;;;;;;;;5009492;28;20042;-77
2021/10/12 07:41:45;;;;;;;11.27;1.38;;;;;;;;;;5009313;28;20389;-77
2021/10/12 07:44:11;;;;;;;10.50;1.83;;;;;;;;;;5009254;28;20057;-77
2021/10/12 07:46:37;;;;;;;11.68;1.75;;;;;;;;;;5009135;28;20098;-77
2021/10/12 07:49:04;;;;;;;12.57;1.50;;;;;;;;;;5009027;28;20041;-77
2021/10/12 07:51:30;;;;;;;8.68;1.95;;;;;;;;;;5009058;28;20066;-77
2021/10/12 07:53:58;;;;;;;9.68;1.73;;;;;;;;;;5004915;28;20041;-77
2021/10/12 07:56:36;;;;;;;8.55;1.10;;;;;;;;;;5005521;28;20061;-77
2021/10/12 07:59:05;;;;;;;11.02;1.65;;;;;;;;;;5021366;28;20050;-77
2021/10/12 08:01:32;;;;;;;9.90;1.98;;;;;;;;;;5009665;28;20043;-77
2021/10/12 08:03:59;;;;;;;11.05;1.33;;;;;;;;;;5006953;28;20121;-77
2021/10/12 08:06:25;;;;;;;10.30;1.30;;;;;;;;;;5010606;28;20482;-77
2021/10/12 08:08:51;;;;;;;10.10;1.48;;;;;;;;;;5008901;28;20030;-77
2021/10/12 08:11:21;;;;;;;12.95;1.85;;;;;;;;;;5014089;28;20042;-77
2021/10/12 08:13:51;;;;;;;11.07;1.75;;;;;;;;;;5011305;28;20041;-77
2021/10/12 08:16:20;;;;;;;15.90;2.03;;;;;;;;;;5011736;28;20567;-77
2021/10/12 08:18:46;;;;;;;15.50;1.73;;;;;;;;;;5014606;28;20054;-77
2021/10/12 08:21:13;;;;;;;17.67;1.85;;;;;;;;;;5012098;28;20042;-77
2021/10/12 08:23:39;;;;;;;14.73;1.50;;;;;;;;;;4993642;28;20082;-77
2021/10/12 08:26:05;;;;;;;13.30;1.98;;;;;;;;;;5013986;28;20555;-77
2021/10/12 08:28:31;;;;;;;16.90;1.77;;;;;;;;;;5011789;28;20180;-77
2021/10/12 08:30:57;;;;;;;10.10;1.70;;;;;;;;;;4995255;28;20041;-77
2021/10/12 08:33:23;;;;;;;10.63;1.30;;;;;;;;;;5013178;28;20600;-77
2021/10/12 08:35:50;;;;;;;8.00;1.85;;;;;;;;;;5013209;28;20096;-77
2021/10/12 08:38:19;;;;;;;8.38;1.70;;;;;;;;;;5012013;28;20045;-77
2021/10/12 08:40:46;;;;;;;11.82;1.77;;;;;;;;;;5011614;28;20057;-77
2021/10/12 08:43:14;;;;;;;15.27;1.80;;;;;;;;;;5011786;28;20056;-77
2021/10/12 08:45:40;;;;;;;7.18;1.52;;;;;;;;;;5012327;28;20070;-77
2021/10/12 08:48:07;;;;;;;10.23;1.48;;;;;;;;;;5011835;28;20077;-77
2021/10/12 08:50:33;;;;;;;15.43;1.73;;;;;;;;;;5011282;28;20046;-77
2021/10/12 08:53:01;;;;;;;6.30;1.05;;;;;;;;;;4994644;28;20410;-77
2021/10/12 08:55:28;;;;;;;10.45;1.83;;;;;;;;;;4995271;28;20042;-77
2021/10/12 08:57:54;;;;;;;12.05;1.65;;;;;;;;;;5012892;28;20050;-77
2021/10/12 09:00:21;;;;;;;12.35;1.95;;;;;;;;;;4985489;28;20056;-77
2021/10/12 09:03:16;;;;;;;9.13;1.42;;;;;;;;;;5002607;28;20037;-77
2021/10/12 09:05:42;;;;;;;;;;;;;;;;;;4986410;28;20064;-77
2021/10/12 09:08:08;;;;;;;13.52;2.30;;;;;;;;;;5005884;28;20373;-77
2021/10/12 09:10:35;;;;;;;9.80;1.35;;;;;;;;;;5009702;28;20554;-77
2021/10/12 09:13:07;;;;;;;12.57;1.20;;;;;;;;;;4998452;28;20151;-77
2021/10/12 09:15:33;;;;;;;6.13;1.02;;;;;;;;;;4995913;28;20038;-77
2021/10/12 09:17:59;;;;;;;11.98;1.38;;;;;;;;;;4995640;28;20192;-77
2021/10/12 09:20:26;;;;;;;7.43;1.15;;;;;;;;;;5002951;28;20045;-77
2021/10/12 09:23:08;;;;;;;13.68;1.77;;;;;;;;;;5003576;28;20093;-77
2021/10/12 09:25:36;;;;;;;5.72;1.00;;;;;;;;;;5007993;28;20037;-77
2021/10/12 09:28:02;;;;;;;11.07;1.70;;;;;;;;;;4995902;28;20488;-77
2021/10/12 09:30:29;;;;;;;8.52;1.00;;;;;;;;;;5011965;28;20089;-77
2021/10/12 09:33:00;;;;;;;8.90;1.80;;;;;;;;;;5015795;28;20529;-77
2021/10/12 09:35:27;;;;;;;9.32;1.33;;;;;;;;;;4996137;28;20366;-77
2021/10/12 09:38:02;;;;;;;10.77;0.95;;;;;;;;;;5009139;28;20485;-77
2021/10/12 09:40:28;;;;;;;10.45;1.50;;;;;;;;;;5003665;28;20056;-77
2021/10/12 09:42:54;;;;;;;9.98;1.63;;;;;;;;;;4995562;28;20038;-76
2021/10/12 09:45:33;;;;;;;9.27;1.60;;;;;;;;;;4995167;28;20057;-75
2021/10/12 09:47:59;;;;;;;8.57;1.48;;;;;;;;;;4996865;28;20418;-75
2021/10/12 09:50:32;;;;;;;9.18;1.33;;;;;;;;;;4995004;28;20042;-75
2021/10/12 09:52:58;;;;;;;8.95;1.45;;;;;;;;;;5002151;28;20473;-75
2021/10/12 09:55:34;;;;;;;7.22;1.10;;;;;;;;;;5005456;28;20045;-75
2021/10/12 09:58:01;;;;;;;12.20;1.60;;;;;;;;;;4996320;28;20133;-75
2021/10/12 10:00:27;;;;;;;7.38;1.10;;;;;;;;;;5010434;28;20082;-75
2021/10/12 10:02:54;;;;;;;11.32;1.42;;;;;;;;;;5010258;28;20425;-75
2021/10/12 10:05:21;;;;;;;7.60;1.10;;;;;;;;;;5011494;28;20056;-75
2021/10/12 10:07:49;;;;;;;4.03;0.90;;;;;;;;;;5010070;28;20077;-75
2021/10/12 10:10:16;;;;;;;4.35;1.13;;;;;;;;;;5010601;28;20086;-75
2021/10/12 10:12:42;;;;;;;5.70;1.10;;;;;;;;;;5009915;28;20045;-75
2021/10/12 10:15:08;;;;;;;8.20;1.30;;;;;;;;;;5009894;28;20144;-75
2021/10/12 10:17:35;;;;;;;8.57;1.10;;;;;;;;;;5010287;28;20457;-75
2021/10/12 10:20:05;;;;;;;6.38;1.10;;;;;;;;;;5009742;28;20453;-75
2021/10/12 10:22:35;;;;;;;6.15;1.13;;;;;;;;;;5011352;28;20085;-75
2021/10/12 10:25:21;;;;;;;7.20;1.13;;;;;;;;;;5011481;28;20042;-75
2021/10/12 10:27:48;;;;;;;5.35;1.30;;;;;;;;;;5009987;28;20061;-75
2021/10/12 10:30:15;;;;;;;5.68;1.40;;;;;;;;;;5025258;28;20085;-75
2021/10/12 10:32:48;;;;;;;8.15;1.20;;;;;;;;;;5009725;28;20046;-75
2021/10/12 10:35:14;;;;;;;4.45;0.82;;;;;;;;;;5009917;28;20434;-75
2021/10/12 10:37:41;;;;;;;5.30;0.85;;;;;;;;;;5010227;28;20486;-75
2021/10/12 10:40:08;;;;;;;8.07;0.98;;;;;;;;;;5011063;28;20104;-75
2021/10/12 10:42:50;;;;;;;9.05;1.55;;;;;;;;;;5011309;28;20053;-75
2021/10/12 10:45:16;;;;;;;7.50;1.60;;;;;;;;;;5009748;28;20061;-75
2021/10/12 10:47:42;;;;;;;7.88;1.52;;;;;;;;;;5009510;28;20128;-75
2021/10/12 10:50:13;;;;;;;8.05;1.45;;;;;;;;;;5009362;28;20397;-75
2021/10/12 10:52:44;;;;;;;7.80;1.10;;;;;;;;;;5021280;28;20046;-75
2021/10/12 10:55:10;;;;;;;7.80;1.60;;;;;;;;;;5009636;28;20501;-75
2021/10/12 10:57:38;;;;;;;6.07;1.40;;;;;;;;;;5009476;28;20044;-75
2021/10/12 11:00:12;;;;;;;7.60;1.30;;;;;;;;;;4993968;28;20551;-75
2021/10/12 11:02:38;;;;;;;8.63;1.50;;;;;;;;;;5016969;28;20057;-75
2021/10/12 11:05:05;;;;;;;9.40;1.55;;;;;;;;;;5011916;28;20048;-76
2021/10/12 11:07:31;;;;;;;6.85;1.13;;;;;;;;;;5004585;28;20128;-75
2021/10/12 11:09:58;;;;;;;11.93;2.35;;;;;;;;;;5005424;28;20050;-75
2021/10/12 11:12:26;;;;;;;8.88;1.70;;;;;;;;;;5010290;28;20137;-75
2021/10/12 11:14:53;;;;;;;15.35;2.05;;;;;;;;;;5010923;28;20037;-75
2021/10/12 11:17:20;;;;;;;10.05;1.52;;;;;;;;;;5010776;28;20378;-75
2021/10/12 11:19:53;;;;;;;7.43;1.35;;;;;;;;;;4997567;28;20041;-76
2021/10/12 11:22:19;;;;;;;10.23;1.70;;;;;;;;;;5010620;28;20045;-75
2021/10/12 11:24:45;;;;;;;8.00;1.33;;;;;;;;;;5010849;28;20038;-74
2021/10/12 11:27:12;;;;;;;9.00;1.70;;;;;;;;;;5010358;28;20046;-75
2021/10/12 11:29:38;;;;;;;8.85;2.15;;;;;;;;;;4997841;28;20121;-75
2021/10/12 11:32:05;;;;;;;7.68;1.48;;;;;;;;;;4993378;28;20164;-75
2021/10/12 11:34:32;;;;;;;7.85;1.80;;;;;;;;;;4999855;28;20494;-74
2021/10/12 11:37:06;;;;;;;9.02;1.60;;;;;;;;;;4995845;28;20046;-74
2021/10/12 11:39:34;;;;;;;7.85;1.33;;;;;;;;;;5010143;28;20096;-75
2021/10/12 11:42:01;;;;;;;9.70;1.83;;;;;;;;;;5010647;28;20046;-75
2021/10/12 11:44:27;;;;;;;11.93;2.08;;;;;;;;;;5006524;28;20046;-75
2021/10/12 11:46:59;;;;;;;9.15;1.88;;;;;;;;;;4980169;28;20136;-75
2021/10/12 11:49:26;;;;;;;6.00;1.48;;;;;;;;;;4997352;28;20367;-75
2021/10/12 11:51:53;;;;;;;9.45;1.60;;;;;;;;;;4999139;28;20050;-75
2021/10/12 11:54:26;;;;;;;8.10;1.77;;;;;;;;;;5021364;28;20054;-75
2021/10/12 11:56:52;;;;;;;5.75;1.30;;;;;;;;;;4997020;28;20116;-74
2021/10/12 11:59:18;;;;;;;11.85;2.10;;;;;;;;;;5008775;28;20177;-75
2021/10/12 12:01:45;;;;;;;6.50;1.70;;;;;;;;;;5012231;28;20478;-75
2021/10/12 12:04:27;;;;;;;10.88;1.85;;;;;;;;;;5012023;28;20049;-74
2021/10/12 12:06:54;;;;;;;6.97;1.60;;;;;;;;;;5014831;28;20046;-75
2021/10/12 12:09:22;;;;;;;8.90;1.60;;;;;;;;;;5012003;28;20517;-75
2021/10/12 12:11:49;;;;;;;6.78;1.30;;;;;;;;;;5013698;28;20505;-75
2021/10/12 12:14:15;;;;;;;7.82;1.38;;;;;;;;;;5013342;28;20112;-75
2021/10/12 12:16:41;;;;;;;5.90;1.60;;;;;;;;;;5012752;28;20069;-75
2021/10/12 12:19:22;;;;;;;5.10;1.25;;;;;;;;;;5012394;28;20060;-75
2021/10/12 12:21:49;;;;;;;7.57;1.35;;;;;;;;;;5011084;28;20054;-78
2021/10/12 12:24:19;;;;;;;7.57;1.40;;;;;;;;;;5012366;28;20486;-78
2021/10/12 12:26:46;;;;;;;10.43;1.80;;;;;;;;;;5026071;28;20050;-78
2021/10/12 12:29:16;;;;;;;8.40;1.45;;;;;;;;;;4993408;28;20101;-78
2021/10/12 12:31:46;;;;;;;10.90;1.88;;;;;;;;;;5011079;28;20050;-77
2021/10/12 12:34:23;;;;;;;5.03;1.20;;;;;;;;;;5010110;28;20049;-78
2021/10/12 12:36:49;;;;;;;6.70;1.38;;;;;;;;;;5010338;28;20045;-78
2021/10/12 12:39:15;;;;;;;8.65;1.58;;;;;;;;;;5014167;28;20109;-77
2021/10/12 12:41:43;;;;;;;5.40;1.38;;;;;;;;;;5011762;28;20053;-78
2021/10/12 12:44:10;;;;;;;6.93;1.73;;;;;;;;;;5009314;28;20042;-78
2021/10/12 12:46:36;;;;;;;5.80;1.15;;;;;;;;;;5007200;28;20046;-77
2021/10/12 12:49:07;;;;;;;7.45;1.35;;;;;;;;;;5009712;28;20051;-77
2021/10/12 12:51:34;;;;;;;7.63;1.80;;;;;;;;;;5005396;28;20046;-77
2021/10/12 12:54:00;;;;;;;6.38;1.05;;;;;;;;;;5025932;28;20049;-77
2021/10/12 12:56:33;;;;;;;4.22;1.08;;;;;;;;;;5003989;28;20053;-77
2021/10/12 12:59:07;;;;;;;6.45;1.38;;;;;;;;;;4992448;28;20151;-77
2021/10/12 13:01:34;;;;;;;8.88;1.50;;;;;;;;;;5004513;28;20065;-77
2021/10/12 13:04:00;;;;;;;6.90;1.98;;;;;;;;;;5025273;28;20048;-77
2021/10/12 13:06:26;;;;;;;8.23;1.20;;;;;;;;;;4998123;28;20477;-77
2021/10/12 13:09:01;;;;;;;13.27;1.67;;;;;;;;;;5009339;28;20407;-77
2021/10/12 13:11:30;;;;;;;7.13;1.30;;;;;;;;;;5010976;28;20370;-77
2021/10/12 13:13:57;;;;;;;10.07;2.00;;;;;;;;;;5025772;28;20051;-77
2021/10/12 13:16:23;;;;;;;7.88;1.42;;;;;;;;;;5009754;28;20104;-77
2021/10/12 13:18:49;;;;;;;6.25;1.25;;;;;;;;;;4992528;28;20054;-77
2021/10/12 13:21:15;;;;;;;6.78;1.45;;;;;;;;;;5007683;28;20108;-77
2021/10/12 13:23:41;;;;;;;8.18;1.50;;;;;;;;;;4992605;28;20050;-77
2021/10/12 13:26:07;;;;;;;4.60;1.10;;;;;;;;;;5005486;28;20046;-76
2021/10/12 13:28:33;;;;;;;6.65;1.48;;;;;;;;;;5024804;28;20112;-77
2021/10/12 13:31:00;;;;;;;9.57;1.25;;;;;;;;;;5005457;28;20061;-77
2021/10/12 13:33:26;;;;;;;7.15;1.55;;;;;;;;;;5007970;28;20126;-76
2021/10/12 13:35:52;;;;;;;9.32;1.73;;;;;;;;;;5002126;28;20049;-76
2021/10/12 13:38:19;;;;;;;9.85;1.50;;;;;;;;;;5027127;28;20073;-76
2021/10/12 13:40:45;;;;;;;6.40;1.13;;;;;;;;;;5008225;28;20456;-77
2021/10/12 13:43:13;;;;;;;9.10;1.30;;;;;;;;;;5006055;28;20082;-77
2021/10/12 13:45:39;;;;;;;9.23;1.60;;;;;;;;;;5008292;28;20406;-77
2021/10/12 13:48:05;;;;;;;9.48;1.30;;;;;;;;;;5003858;28;20575;-77
2021/10/12 13:50:31;;;;;;;7.15;1.17;;;;;;;;;;5006257;28;20042;-77
2021/10/12 13:52:57;;;;;;;5.18;0.98;;;;;;;;;;5007242;28;20059;-78
2021/10/12 13:55:24;;;;;;;9.60;1.20;;;;;;;;;;5008457;28;20061;-77
2021/10/12 13:57:51;;;;;;;9.10;1.65;;;;;;;;;;4994781;28;20053;-76
2021/10/12 14:00:19;;;;;;;6.47;1.45;;;;;;;;;;4979252;28;20494;-76
2021/10/12 14:02:46;;;;;;;8.27;1.85;;;;;;;;;;4969656;28;20065;-75
2021/10/12 14:05:12;;;;;;;5.95;1.05;;;;;;;;;;4964429;28;20046;-77
2021/10/12 14:07:38;;;;;;;6.20;1.60;;;;;;;;;;4975660;28;20422;-77
2021/10/12 14:10:05;;;;;;;7.13;1.65;;;;;;;;;;4968586;28;20105;-77
2021/10/12 14:12:31;;;;;;;4.97;0.95;;;;;;;;;;4966670;28;20510;-77
2021/10/12 14:14:58;;;;;;;6.32;1.33;;;;;;;;;;4971430;28;20069;-76
2021/10/12 14:17:27;;;;;;;5.15;1.15;;;;;;;;;;4970344;28;20482;-77
2021/10/12 14:19:55;;;;;;;6.68;1.17;;;;;;;;;;4970650;28;20051;-77
2021/10/12 14:22:21;;;;;;;6.18;1.17;;;;;;;;;;4970982;28;20074;-77
2021/10/12 14:24:47;;;;;;;6.97;1.15;;;;;;;;;;4984648;28;20038;-77
2021/10/12 14:27:14;;;;;;;6.20;0.90;;;;;;;;;;4963216;28;20134;-76
2021/10/12 14:29:40;;;;;;;7.38;1.17;;;;;;;;;;4963322;28;20064;-77
2021/10/12 14:32:08;;;;;;;6.63;1.13;;;;;;;;;;4965540;28;20064;-77
2021/10/12 14:34:35;;;;;;;7.50;1.73;;;;;;;;;;4983783;28;20105;-76